createdAt,value
2019-02-25T00:00:14.594Z,8.28
2019-02-25T00:01:14.586Z,8.27
2019-02-25T00:02:14.581Z,8.32
2019-02-25T00:03:14.563Z,8.34
2019-02-25T00:04:14.553Z,8.20
2019-02-25T00:05:14.595Z,8.25
2019-02-25T00:06:14.532Z,8.24
2019-02-25T00:07:14.527Z,8.13
2019-02-25T00:08:14.517Z,8.07
2019-02-25T00:09:14.501Z,8.13
2019-02-25T00:10:14.494Z,8.07
2019-02-25T00:11:14.489Z,8.13
2019-02-25T00:12:14.478Z,8.02
2019-02-25T00:13:14.478Z,8.03
2019-02-25T00:14:14.462Z,8.00
2019-02-25T00:15:14.450Z,8.02
2019-02-25T00:16:14.439Z,7.96
2019-02-25T00:17:14.433Z,7.99
2019-02-25T00:18:14.423Z,8.03
2019-02-25T00:19:14.409Z,8.06
2019-02-25T00:20:14.401Z,8.06
2019-02-25T00:21:14.388Z,8.06
2019-02-25T00:22:14.377Z,8.07
2019-02-25T00:23:14.374Z,8.02
2019-02-25T00:24:14.363Z,7.94
2019-02-25T00:25:14.353Z,7.96
2019-02-25T00:26:14.339Z,8.02
2019-02-25T00:27:14.337Z,8.00
2019-02-25T00:28:14.325Z,7.92
2019-02-25T00:29:14.317Z,8.02
2019-02-25T00:30:14.308Z,8.00
2019-02-25T00:31:14.294Z,8.02
2019-02-25T00:32:14.286Z,8.03
2019-02-25T00:33:14.275Z,8.00
2019-02-25T00:34:14.266Z,8.00
2019-02-25T00:35:14.260Z,7.95
2019-02-25T00:36:14.250Z,8.00
2019-02-25T00:37:14.238Z,8.00
2019-02-25T00:38:14.229Z,7.95
2019-02-25T00:39:14.213Z,8.03
2019-02-25T00:40:14.203Z,8.06
2019-02-25T00:41:14.199Z,8.06
2019-02-25T00:42:14.191Z,7.99
2019-02-25T00:43:14.176Z,8.09
2019-02-25T00:44:14.165Z,8.00
2019-02-25T00:45:14.159Z,8.13
2019-02-25T00:46:14.149Z,8.07
2019-02-25T00:47:14.145Z,8.10
2019-02-25T00:48:14.134Z,8.14
2019-02-25T00:49:14.125Z,8.04
2019-02-25T00:50:14.116Z,8.09
2019-02-25T00:51:14.103Z,8.06
2019-02-25T00:52:14.092Z,8.03
2019-02-25T00:53:14.079Z,8.03
2019-02-25T00:54:14.070Z,8.00
2019-02-25T00:55:14.066Z,8.12
2019-02-25T00:56:14.057Z,8.04
2019-02-25T00:57:14.042Z,8.00
2019-02-25T00:58:14.031Z,8.06
2019-02-25T00:59:14.028Z,8.04
2019-02-25T01:00:14.016Z,7.99
2019-02-25T01:01:14.008Z,7.86
2019-02-25T01:02:14.000Z,7.99
2019-02-25T01:03:13.987Z,7.88
2019-02-25T01:04:13.975Z,7.91
2019-02-25T01:05:13.967Z,7.89
2019-02-25T01:06:13.957Z,7.86
2019-02-25T01:07:13.953Z,7.85
2019-02-25T01:08:13.940Z,7.91
2019-02-25T01:09:13.928Z,7.92
2019-02-25T01:10:13.921Z,7.92
2019-02-25T01:11:13.905Z,7.91
2019-02-25T01:12:13.895Z,7.86
2019-02-25T01:13:13.892Z,7.86
2019-02-25T01:14:13.882Z,7.70
2019-02-25T01:15:13.870Z,7.84
2019-02-25T01:16:13.857Z,7.91
2019-02-25T01:17:13.850Z,7.86
2019-02-25T01:18:13.841Z,7.88
2019-02-25T01:19:13.835Z,7.99
2019-02-25T01:20:13.825Z,8.03
2019-02-25T01:21:13.814Z,7.96
2019-02-25T01:22:13.804Z,8.04
2019-02-25T01:23:13.790Z,7.99
2019-02-25T01:24:13.779Z,8.13
2019-02-25T01:25:13.772Z,8.00
2019-02-25T01:26:13.764Z,7.94
2019-02-25T01:27:13.758Z,8.02
2019-02-25T01:28:13.748Z,7.88
2019-02-25T01:29:13.734Z,7.89
2019-02-25T01:30:13.725Z,7.91
2019-02-25T01:31:13.722Z,7.71
2019-02-25T01:32:13.709Z,7.69
2019-02-25T01:33:13.697Z,7.66
2019-02-25T01:34:13.689Z,7.66
2019-02-25T01:35:13.674Z,7.50
2019-02-25T01:36:13.668Z,7.45
2019-02-25T01:37:13.653Z,7.42
2019-02-25T01:38:15.629Z,7.32
2019-02-25T01:39:13.641Z,7.32
2019-02-25T01:40:13.634Z,7.29
2019-02-25T01:41:13.623Z,7.23
2019-02-25T01:42:13.611Z,7.16
2019-02-25T01:43:13.598Z,7.14
2019-02-25T01:44:13.587Z,7.08
2019-02-25T01:45:13.582Z,7.05
2019-02-25T01:46:13.572Z,6.93
2019-02-25T01:47:13.558Z,6.93
2019-02-25T01:48:13.549Z,6.96
2019-02-25T01:49:13.536Z,6.93
2019-02-25T01:50:13.525Z,6.81
2019-02-25T01:51:13.521Z,6.79
2019-02-25T01:52:13.510Z,6.71
2019-02-25T01:53:13.499Z,6.71
2019-02-25T01:54:13.490Z,6.72
2019-02-25T01:55:13.474Z,6.71
2019-02-25T01:56:13.465Z,6.57
2019-02-25T01:57:13.459Z,6.60
2019-02-25T01:58:13.448Z,6.61
2019-02-25T01:59:13.443Z,6.58
2019-02-25T02:00:13.432Z,6.68
2019-02-25T02:01:13.417Z,6.54
2019-02-25T02:02:13.407Z,6.55
2019-02-25T02:03:13.400Z,6.54
2019-02-25T02:04:13.391Z,6.53
2019-02-25T02:05:13.379Z,6.51
2019-02-25T02:06:13.369Z,6.50
2019-02-25T02:07:13.361Z,6.58
2019-02-25T02:08:13.343Z,6.57
2019-02-25T02:09:13.333Z,6.48
2019-02-25T02:10:13.323Z,6.55
2019-02-25T02:11:13.319Z,6.54
2019-02-25T02:12:13.307Z,6.54
2019-02-25T02:13:14.465Z,6.58
2019-02-25T02:14:13.290Z,6.55
2019-02-25T02:15:13.275Z,6.51
2019-02-25T02:16:13.266Z,6.51
2019-02-25T02:17:13.258Z,6.48
2019-02-25T02:18:13.248Z,6.43
2019-02-25T02:19:13.234Z,6.39
2019-02-25T02:20:13.223Z,6.30
2019-02-25T02:21:13.210Z,6.42
2019-02-25T02:22:13.201Z,6.32
2019-02-25T02:23:13.194Z,6.38
2019-02-25T02:24:13.184Z,6.30
2019-02-25T02:25:13.189Z,6.25
2019-02-25T02:26:13.168Z,6.32
2019-02-25T02:27:13.152Z,6.33
2019-02-25T02:28:13.141Z,6.24
2019-02-25T02:29:13.131Z,6.30
2019-02-25T02:30:13.119Z,6.45
2019-02-25T02:31:13.113Z,6.46
2019-02-25T02:32:13.102Z,6.42
2019-02-25T02:33:13.087Z,6.50
2019-02-25T02:34:13.078Z,6.45
2019-02-25T02:35:13.070Z,6.48
2019-02-25T02:36:13.062Z,6.42
2019-02-25T02:37:13.051Z,6.46
2019-02-25T02:38:13.041Z,6.46
2019-02-25T02:39:13.030Z,6.39
2019-02-25T02:40:13.013Z,6.35
2019-02-25T02:41:13.012Z,6.35
2019-02-25T02:42:12.998Z,6.30
2019-02-25T02:43:12.989Z,6.28
2019-02-25T02:44:12.978Z,6.28
2019-02-25T02:45:12.969Z,6.35
2019-02-25T02:46:12.956Z,6.45
2019-02-25T02:47:12.941Z,6.38
2019-02-25T02:48:12.931Z,6.33
2019-02-25T02:49:12.927Z,6.30
2019-02-25T02:50:12.916Z,6.35
2019-02-25T02:51:12.901Z,6.45
2019-02-25T02:52:12.891Z,6.43
2019-02-25T02:53:12.882Z,6.46
2019-02-25T02:54:12.869Z,6.55
2019-02-25T02:55:12.865Z,6.50
2019-02-25T02:56:12.853Z,6.53
2019-02-25T02:57:12.846Z,6.61
2019-02-25T02:58:12.835Z,6.61
2019-02-25T02:59:12.821Z,6.63
2019-02-25T03:00:12.810Z,6.58
2019-02-25T03:01:12.795Z,6.61
2019-02-25T03:02:12.785Z,6.61
2019-02-25T03:03:12.781Z,6.65
2019-02-25T03:04:12.770Z,6.63
2019-02-25T03:05:12.755Z,6.60
2019-02-25T03:06:12.747Z,6.73
2019-02-25T03:07:12.741Z,6.75
2019-02-25T03:08:12.730Z,6.75
2019-02-25T03:09:12.722Z,6.89
2019-02-25T03:10:12.712Z,6.81
2019-02-25T03:11:12.697Z,6.87
2019-02-25T03:12:12.714Z,6.89
2019-02-25T03:13:12.684Z,6.90
2019-02-25T03:14:12.666Z,6.97
2019-02-25T03:15:12.661Z,6.89
2019-02-25T03:16:12.651Z,6.89
2019-02-25T03:17:12.638Z,6.89
2019-02-25T03:18:12.628Z,6.82
2019-02-25T03:19:12.614Z,6.78
2019-02-25T03:20:12.610Z,6.60
2019-02-25T03:21:12.595Z,6.58
2019-02-25T03:22:12.593Z,6.53
2019-02-25T03:23:12.570Z,6.42
2019-02-25T03:24:12.561Z,6.38
2019-02-25T03:25:12.556Z,6.38
2019-02-25T03:26:12.543Z,6.38
2019-02-25T03:27:12.537Z,6.27
2019-02-25T03:28:12.525Z,6.21
2019-02-25T03:29:12.513Z,6.08
2019-02-25T03:30:12.505Z,6.10
2019-02-25T03:31:12.493Z,6.25
2019-02-25T03:32:12.487Z,6.06
2019-02-25T03:33:12.495Z,6.16
2019-02-25T03:34:12.460Z,6.10
2019-02-25T03:35:12.454Z,6.05
2019-02-25T03:36:12.441Z,6.06
2019-02-25T03:37:12.426Z,5.98
2019-02-25T03:38:12.416Z,5.92
2019-02-25T03:39:12.412Z,5.90
2019-02-25T03:40:12.399Z,5.85
2019-02-25T03:41:12.387Z,5.88
2019-02-25T03:42:12.376Z,5.78
2019-02-25T03:43:12.361Z,5.80
2019-02-25T03:44:12.350Z,5.77
2019-02-25T03:45:12.340Z,5.77
2019-02-25T03:46:12.328Z,5.67
2019-02-25T03:47:12.323Z,5.74
2019-02-25T03:48:12.314Z,5.74
2019-02-25T03:49:12.302Z,5.69
2019-02-25T03:50:12.295Z,5.63
2019-02-25T03:51:12.278Z,5.66
2019-02-25T03:52:12.278Z,5.74
2019-02-25T03:53:12.261Z,5.74
2019-02-25T03:54:12.251Z,5.66
2019-02-25T03:55:12.235Z,5.59
2019-02-25T03:56:12.224Z,5.58
2019-02-25T03:57:12.210Z,5.55
2019-02-25T03:58:12.201Z,5.60
2019-02-25T03:59:12.196Z,5.58
2019-02-25T04:00:12.184Z,5.70
2019-02-25T04:01:12.173Z,5.59
2019-02-25T04:02:12.163Z,5.59
2019-02-25T04:03:12.145Z,5.66
2019-02-25T04:04:12.135Z,5.65
2019-02-25T04:05:12.127Z,5.66
2019-02-25T04:06:12.117Z,5.66
2019-02-25T04:07:12.110Z,5.63
2019-02-25T04:08:12.100Z,5.62
2019-02-25T04:09:12.086Z,5.67
2019-02-25T04:10:12.073Z,5.62
2019-02-25T04:11:12.071Z,5.59
2019-02-25T04:12:12.055Z,5.58
2019-02-25T04:13:12.042Z,5.52
2019-02-25T04:14:12.034Z,5.62
2019-02-25T04:15:12.016Z,5.51
2019-02-25T04:16:12.012Z,5.51
2019-02-25T04:17:11.995Z,5.58
2019-02-25T04:18:11.984Z,5.52
2019-02-25T04:19:11.977Z,5.44
2019-02-25T04:20:11.967Z,5.40
2019-02-25T04:21:11.959Z,5.41
2019-02-25T04:22:11.948Z,5.41
2019-02-25T04:23:11.935Z,5.37
2019-02-25T04:24:11.920Z,5.32
2019-02-25T04:25:11.915Z,5.35
2019-02-25T04:26:11.905Z,5.37
2019-02-25T04:27:11.889Z,5.32
2019-02-25T04:28:11.881Z,5.35
2019-02-25T04:29:11.867Z,5.33
2019-02-25T04:30:11.858Z,5.40
2019-02-25T04:31:11.848Z,5.32
2019-02-25T04:32:11.836Z,5.33
2019-02-25T04:33:11.827Z,5.41
2019-02-25T04:34:11.815Z,5.30
2019-02-25T04:35:11.798Z,5.27
2019-02-25T04:36:11.787Z,5.29
2019-02-25T04:37:11.780Z,5.26
2019-02-25T04:38:11.766Z,5.23
2019-02-25T04:39:11.761Z,5.29
2019-02-25T04:40:11.750Z,5.24
2019-02-25T04:41:11.735Z,5.22
2019-02-25T04:42:11.728Z,5.30
2019-02-25T04:43:11.718Z,5.29
2019-02-25T04:44:11.706Z,5.35
2019-02-25T04:45:11.697Z,5.37
2019-02-25T04:46:11.690Z,5.40
2019-02-25T04:47:11.674Z,5.40
2019-02-25T04:48:11.654Z,5.37
2019-02-25T04:49:11.647Z,5.35
2019-02-25T04:50:11.635Z,5.35
2019-02-25T04:51:11.677Z,5.40
2019-02-25T04:52:11.615Z,5.38
2019-02-25T04:53:11.607Z,5.33
2019-02-25T04:54:11.596Z,5.41
2019-02-25T04:55:11.580Z,5.47
2019-02-25T04:56:11.569Z,5.41
2019-02-25T04:57:11.567Z,5.42
2019-02-25T04:58:11.552Z,5.45
2019-02-25T04:59:11.546Z,5.44
2019-02-25T05:00:11.533Z,5.44
2019-02-25T05:01:11.511Z,5.51
2019-02-25T05:02:11.502Z,5.51
2019-02-25T05:03:11.496Z,5.60
2019-02-25T05:04:11.485Z,5.63
2019-02-25T05:05:11.474Z,5.75
2019-02-25T05:06:11.462Z,5.77
2019-02-25T05:07:11.449Z,5.73
2019-02-25T05:08:11.435Z,5.73
2019-02-25T05:09:11.427Z,5.77
2019-02-25T05:10:11.417Z,5.85
2019-02-25T05:11:11.410Z,5.92
2019-02-25T05:12:11.400Z,5.98
2019-02-25T05:13:11.387Z,5.92
2019-02-25T05:14:11.371Z,6.06
2019-02-25T05:15:11.373Z,6.08
2019-02-25T05:16:11.354Z,6.16
2019-02-25T05:17:11.350Z,6.11
2019-02-25T05:18:11.336Z,6.11
2019-02-25T05:19:11.316Z,6.24
2019-02-25T05:20:11.306Z,6.24
2019-02-25T05:21:11.297Z,6.30
2019-02-25T05:22:11.285Z,6.33
2019-02-25T05:23:11.276Z,6.27
2019-02-25T05:24:11.270Z,6.27
2019-02-25T05:25:11.265Z,6.24
2019-02-25T05:26:11.246Z,6.32
2019-02-25T05:27:11.232Z,6.35
2019-02-25T05:28:11.220Z,6.19
2019-02-25T05:29:11.215Z,6.17
2019-02-25T05:30:11.213Z,6.11
2019-02-25T05:31:11.190Z,6.20
2019-02-25T05:32:11.177Z,6.13
2019-02-25T05:33:11.171Z,6.10
2019-02-25T05:34:11.154Z,5.93
2019-02-25T05:35:11.146Z,5.96
2019-02-25T05:36:11.136Z,5.90
2019-02-25T05:37:11.128Z,5.84
2019-02-25T05:38:11.117Z,5.80
2019-02-25T05:39:11.102Z,5.69
2019-02-25T05:40:11.091Z,5.66
2019-02-25T05:41:11.077Z,5.66
2019-02-25T05:42:11.065Z,5.55
2019-02-25T05:43:11.059Z,5.63
2019-02-25T05:44:11.047Z,5.51
2019-02-25T05:45:11.037Z,5.58
2019-02-25T05:46:11.020Z,5.49
2019-02-25T05:47:11.016Z,5.42
2019-02-25T05:48:11.004Z,5.42
2019-02-25T05:49:10.999Z,5.35
2019-02-25T05:50:10.989Z,5.32
2019-02-25T05:51:10.976Z,5.29
2019-02-25T05:52:10.955Z,5.32
2019-02-25T05:53:10.946Z,5.23
2019-02-25T05:54:10.935Z,5.23
2019-02-25T05:55:10.931Z,5.06
2019-02-25T05:56:10.922Z,5.15
2019-02-25T05:57:10.904Z,5.14
2019-02-25T05:58:10.892Z,5.04
2019-02-25T05:59:10.877Z,5.04
2019-02-25T06:00:10.865Z,5.02
2019-02-25T06:01:10.859Z,5.02
2019-02-25T06:02:10.848Z,5.05
2019-02-25T06:03:10.833Z,5.02
2019-02-25T06:04:10.821Z,4.91
2019-02-25T06:05:10.812Z,4.91
2019-02-25T06:06:10.801Z,5.01
2019-02-25T06:07:10.795Z,5.02
2019-02-25T06:08:10.783Z,5.09
2019-02-25T06:09:10.772Z,5.05
2019-02-25T06:10:10.763Z,5.05
2019-02-25T06:11:10.745Z,5.09
2019-02-25T06:12:10.732Z,5.12
2019-02-25T06:13:10.718Z,5.12
2019-02-25T06:14:10.709Z,5.02
2019-02-25T06:15:10.700Z,5.06
2019-02-25T06:16:10.691Z,5.04
2019-02-25T06:17:10.674Z,5.01
2019-02-25T06:18:10.664Z,4.99
2019-02-25T06:19:10.657Z,4.99
2019-02-25T06:20:10.644Z,5.02
2019-02-25T06:21:10.636Z,4.91
2019-02-25T06:22:10.631Z,4.90
2019-02-25T06:23:10.608Z,4.90
2019-02-25T06:24:10.597Z,4.83
2019-02-25T06:25:10.586Z,4.90
2019-02-25T06:26:10.575Z,4.91
2019-02-25T06:27:10.568Z,4.96
2019-02-25T06:28:10.558Z,4.96
2019-02-25T06:29:10.544Z,4.91
2019-02-25T06:30:10.532Z,4.88
2019-02-25T06:31:10.522Z,4.80
2019-02-25T06:32:10.503Z,4.79
2019-02-25T06:33:10.505Z,4.88
2019-02-25T06:34:10.489Z,4.80
2019-02-25T06:35:10.473Z,4.77
2019-02-25T06:36:10.459Z,4.86
2019-02-25T06:37:10.450Z,4.86
2019-02-25T06:38:10.438Z,4.79
2019-02-25T06:39:10.436Z,4.80
2019-02-25T06:40:10.420Z,4.90
2019-02-25T06:41:10.407Z,4.79
2019-02-25T06:42:10.396Z,4.79
2019-02-25T06:43:10.382Z,4.86
2019-02-25T06:44:10.368Z,4.90
2019-02-25T06:45:10.359Z,4.88
2019-02-25T06:46:10.349Z,4.91
2019-02-25T06:47:10.341Z,4.93
2019-02-25T06:48:10.328Z,4.91
2019-02-25T06:49:10.314Z,4.97
2019-02-25T06:50:10.302Z,5.08
2019-02-25T06:51:10.296Z,5.26
2019-02-25T06:52:10.283Z,5.51
2019-02-25T06:53:10.270Z,6.14
2019-02-25T06:54:10.264Z,6.57
2019-02-25T06:55:10.247Z,7.15
2019-02-25T06:56:10.233Z,7.74
2019-02-25T06:57:10.222Z,8.22
2019-02-25T06:58:10.212Z,8.71
2019-02-25T06:59:10.206Z,9.31
2019-02-25T07:00:10.196Z,9.77
2019-02-25T07:01:10.188Z,10.29
2019-02-25T07:02:10.177Z,10.86
2019-02-25T07:03:10.163Z,11.30
2019-02-25T07:04:10.157Z,11.94
2019-02-25T07:05:10.148Z,12.21
2019-02-25T07:06:10.140Z,12.51
2019-02-25T07:07:10.126Z,12.91
2019-02-25T07:08:10.118Z,13.17
2019-02-25T07:09:10.107Z,13.51
2019-02-25T07:10:10.100Z,13.47
2019-02-25T07:11:10.097Z,13.25
2019-02-25T07:12:10.087Z,12.88
2019-02-25T07:13:10.079Z,12.48
2019-02-25T07:14:10.074Z,12.23
2019-02-25T07:15:10.063Z,11.98
2019-02-25T07:16:10.060Z,12.12
2019-02-25T07:17:10.048Z,12.49
2019-02-25T07:18:10.042Z,13.16
2019-02-25T07:19:10.042Z,13.62
2019-02-25T07:20:10.032Z,14.06
2019-02-25T07:21:10.021Z,14.60
2019-02-25T07:22:10.015Z,14.97
2019-02-25T07:23:10.012Z,15.44
2019-02-25T07:24:10.009Z,15.80
2019-02-25T07:25:09.998Z,16.22
2019-02-25T07:26:09.991Z,16.65
2019-02-25T07:27:09.981Z,17.02
2019-02-25T07:28:09.974Z,17.36
2019-02-25T07:29:09.970Z,17.63
2019-02-25T07:30:09.964Z,17.95
2019-02-25T07:31:09.965Z,18.32
2019-02-25T07:32:09.959Z,18.68
2019-02-25T07:33:09.958Z,18.84
2019-02-25T07:34:09.956Z,18.97
2019-02-25T07:35:09.952Z,19.15
2019-02-25T07:36:09.946Z,19.25
2019-02-25T07:37:09.946Z,19.46
2019-02-25T07:38:09.958Z,19.52
2019-02-25T07:39:09.936Z,19.70
2019-02-25T07:40:09.932Z,20.00
2019-02-25T07:41:09.927Z,20.19
2019-02-25T07:42:09.929Z,20.51
2019-02-25T07:43:09.928Z,20.87
2019-02-25T07:44:09.928Z,20.98
2019-02-25T07:45:09.928Z,21.28
2019-02-25T07:46:09.926Z,21.37
2019-02-25T07:47:09.922Z,21.43
2019-02-25T07:48:09.920Z,21.33
2019-02-25T07:49:09.917Z,21.37
2019-02-25T07:50:09.918Z,21.70
2019-02-25T07:51:09.921Z,22.05
2019-02-25T07:52:09.921Z,22.31
2019-02-25T07:53:09.916Z,22.66
2019-02-25T07:54:09.915Z,23.06
2019-02-25T07:55:09.923Z,23.50
2019-02-25T07:56:09.922Z,23.77
2019-02-25T07:57:09.923Z,24.06
2019-02-25T07:58:09.926Z,24.34
2019-02-25T07:59:09.927Z,24.56
2019-02-25T08:00:09.927Z,24.84
2019-02-25T08:01:09.926Z,24.99
2019-02-25T08:02:09.929Z,25.19
2019-02-25T08:03:09.934Z,25.41
2019-02-25T08:04:09.936Z,25.51
2019-02-25T08:05:09.937Z,25.67
2019-02-25T08:06:11.907Z,25.82
2019-02-25T08:07:09.937Z,26.09
2019-02-25T08:08:09.938Z,26.31
2019-02-25T08:09:09.947Z,26.56
2019-02-25T08:10:09.950Z,26.69
2019-02-25T08:11:09.949Z,26.71
2019-02-25T08:12:09.956Z,27.03
2019-02-25T08:13:09.958Z,27.23
2019-02-25T08:14:09.961Z,27.48
2019-02-25T08:15:09.972Z,27.48
2019-02-25T08:16:09.973Z,27.38
2019-02-25T08:17:09.977Z,27.49
2019-02-25T08:18:09.984Z,27.62
2019-02-25T08:19:09.981Z,27.43
2019-02-25T08:20:09.989Z,27.58
2019-02-25T08:21:09.987Z,27.84
2019-02-25T08:22:09.993Z,27.78
2019-02-25T08:23:10.003Z,27.91
2019-02-25T08:24:10.009Z,27.96
2019-02-25T08:25:10.007Z,28.20
2019-02-25T08:26:10.014Z,28.28
2019-02-25T08:27:10.024Z,28.43
2019-02-25T08:28:10.030Z,28.54
2019-02-25T08:29:10.037Z,28.72
2019-02-25T08:30:10.042Z,28.74
2019-02-25T08:31:10.043Z,28.73
2019-02-25T08:32:10.048Z,28.80
2019-02-25T08:33:10.055Z,28.76
2019-02-25T08:34:18.347Z,28.42
2019-02-25T08:35:10.070Z,28.03
2019-02-25T08:36:10.076Z,27.87
2019-02-25T08:37:10.086Z,27.91
2019-02-25T08:38:10.086Z,28.14
2019-02-25T08:39:10.088Z,28.27
2019-02-25T08:40:11.617Z,28.39
2019-02-25T08:41:10.150Z,28.38
2019-02-25T08:42:10.111Z,28.54
2019-02-25T08:43:10.113Z,28.77
2019-02-25T08:44:10.117Z,28.83
2019-02-25T08:45:10.126Z,29.00
2019-02-25T08:46:10.135Z,29.14
2019-02-25T08:47:10.144Z,29.33
2019-02-25T08:48:10.151Z,29.49
2019-02-25T08:49:10.150Z,29.35
2019-02-25T08:50:10.156Z,29.52
2019-02-25T08:51:10.169Z,29.74
2019-02-25T08:52:10.175Z,30.00
2019-02-25T08:53:10.184Z,30.07
2019-02-25T08:54:10.192Z,30.34
2019-02-25T08:55:10.194Z,30.48
2019-02-25T08:56:10.200Z,30.45
2019-02-25T08:57:10.214Z,30.59
2019-02-25T08:58:10.218Z,30.78
2019-02-25T08:59:10.224Z,30.22
2019-02-25T09:00:10.229Z,30.15
2019-02-25T09:01:10.233Z,30.13
2019-02-25T09:02:10.244Z,30.18
2019-02-25T09:03:10.254Z,30.36
2019-02-25T09:04:10.262Z,30.57
2019-02-25T09:05:10.269Z,30.73
2019-02-25T09:06:10.332Z,30.70
2019-02-25T09:07:10.286Z,30.90
2019-02-25T09:08:10.291Z,31.15
2019-02-25T09:09:10.299Z,31.27
2019-02-25T09:10:10.307Z,31.62
2019-02-25T09:11:14.166Z,31.69
2019-02-25T09:12:10.327Z,31.84
2019-02-25T09:13:10.331Z,31.92
2019-02-25T09:14:10.343Z,31.67
2019-02-25T09:15:10.352Z,30.78
2019-02-25T09:16:10.363Z,30.61
2019-02-25T09:17:10.368Z,30.49
2019-02-25T09:18:10.377Z,30.82
2019-02-25T09:19:10.381Z,30.85
2019-02-25T09:20:10.389Z,30.46
2019-02-25T09:21:10.399Z,30.46
2019-02-25T09:22:10.409Z,30.59
2019-02-25T09:23:10.421Z,30.76
2019-02-25T09:24:10.431Z,31.15
2019-02-25T09:25:10.444Z,31.56
2019-02-25T09:26:11.902Z,31.75
2019-02-25T09:27:10.457Z,32.28
2019-02-25T09:28:10.467Z,32.66
2019-02-25T09:29:10.479Z,32.93
2019-02-25T09:30:10.490Z,33.07
2019-02-25T09:31:10.495Z,33.09
2019-02-25T09:32:10.509Z,33.43
2019-02-25T09:33:10.513Z,33.52
2019-02-25T09:34:11.810Z,33.59
2019-02-25T09:35:10.536Z,33.82
2019-02-25T09:36:10.546Z,34.03
2019-02-25T09:37:10.557Z,33.93
2019-02-25T09:38:10.566Z,33.65
2019-02-25T09:39:10.574Z,33.63
2019-02-25T09:40:10.583Z,33.71
2019-02-25T09:41:10.596Z,33.96
2019-02-25T09:42:10.610Z,34.31
2019-02-25T09:43:10.625Z,34.48
2019-02-25T09:44:10.634Z,34.87
2019-02-25T09:45:10.640Z,35.05
2019-02-25T09:46:10.651Z,35.00
2019-02-25T09:47:10.667Z,34.90
2019-02-25T09:48:10.679Z,34.69
2019-02-25T09:49:10.686Z,34.84
2019-02-25T09:50:10.698Z,34.93
2019-02-25T09:51:11.375Z,34.43
2019-02-25T09:52:10.719Z,33.79
2019-02-25T09:53:10.731Z,33.60
2019-02-25T09:54:10.741Z,32.54
2019-02-25T09:55:10.758Z,31.72
2019-02-25T09:56:10.773Z,31.90
2019-02-25T09:57:10.777Z,31.94
2019-02-25T09:58:10.791Z,32.10
2019-02-25T09:59:10.797Z,32.51
2019-02-25T10:00:10.808Z,32.76
2019-02-25T10:01:10.825Z,33.02
2019-02-25T10:02:10.835Z,33.31
2019-02-25T10:03:10.843Z,33.65
2019-02-25T10:04:10.854Z,34.09
2019-02-25T10:05:10.870Z,33.52
2019-02-25T10:06:12.872Z,33.07
2019-02-25T10:07:10.899Z,33.44
2019-02-25T10:08:10.910Z,33.63
2019-02-25T10:09:10.919Z,33.82
2019-02-25T10:10:10.932Z,34.08
2019-02-25T10:11:10.940Z,34.60
2019-02-25T10:12:10.952Z,33.66
2019-02-25T10:13:10.960Z,33.87
2019-02-25T10:14:10.971Z,33.72
2019-02-25T10:15:10.990Z,33.84
2019-02-25T10:16:11.000Z,34.11
2019-02-25T10:17:11.007Z,33.55
2019-02-25T10:18:11.024Z,32.56
2019-02-25T10:19:11.037Z,30.78
2019-02-25T10:20:11.051Z,30.76
2019-02-25T10:21:11.064Z,30.11
2019-02-25T10:22:11.074Z,28.95
2019-02-25T10:23:11.084Z,28.64
2019-02-25T10:24:11.097Z,28.76
2019-02-25T10:25:11.105Z,29.62
2019-02-25T10:26:11.116Z,30.54
2019-02-25T10:27:11.132Z,30.18
2019-02-25T10:28:11.143Z,29.76
2019-02-25T10:29:11.155Z,30.23
2019-02-25T10:30:11.164Z,30.00
2019-02-25T10:31:13.043Z,29.78
2019-02-25T10:32:11.178Z,30.04
2019-02-25T10:33:11.203Z,30.67
2019-02-25T10:34:11.207Z,31.10
2019-02-25T10:35:11.214Z,31.68
2019-02-25T10:36:11.223Z,32.16
2019-02-25T10:37:13.041Z,32.07
2019-02-25T10:38:11.247Z,31.47
2019-02-25T10:39:12.996Z,31.27
2019-02-25T10:40:12.914Z,30.38
2019-02-25T10:41:11.286Z,29.67
2019-02-25T10:42:11.295Z,30.03
2019-02-25T10:43:11.303Z,29.94
2019-02-25T10:44:11.314Z,30.04
2019-02-25T10:45:13.340Z,29.41
2019-02-25T10:46:13.481Z,29.48
2019-02-25T10:47:13.132Z,29.91
2019-02-25T10:48:11.359Z,29.51
2019-02-25T10:49:11.813Z,29.37
2019-02-25T10:50:11.378Z,29.92
2019-02-25T10:51:13.182Z,30.42
2019-02-25T10:52:12.884Z,30.81
2019-02-25T10:53:13.588Z,31.35
2019-02-25T10:54:11.425Z,31.64
2019-02-25T10:55:11.430Z,32.16
2019-02-25T10:56:11.441Z,32.07
2019-02-25T10:57:11.448Z,31.38
2019-02-25T10:58:11.462Z,31.67
2019-02-25T10:59:11.476Z,32.10
2019-02-25T11:00:12.041Z,32.56
2019-02-25T11:01:13.390Z,31.30
2019-02-25T11:02:13.191Z,28.21
2019-02-25T11:03:12.825Z,27.52
2019-02-25T11:04:11.529Z,27.71
2019-02-25T11:05:11.542Z,28.73
2019-02-25T11:06:11.552Z,29.25
2019-02-25T11:07:11.571Z,30.01
2019-02-25T11:08:13.681Z,29.88
2019-02-25T11:09:13.402Z,30.34
2019-02-25T11:10:12.069Z,30.75
2019-02-25T11:11:11.601Z,30.75
2019-02-25T11:12:11.611Z,31.09
2019-02-25T11:13:11.621Z,31.01
2019-02-25T11:14:11.631Z,31.04
2019-02-25T11:15:13.350Z,29.91
2019-02-25T11:16:12.403Z,29.60
2019-02-25T11:17:11.659Z,29.20
2019-02-25T11:18:11.670Z,28.97
2019-02-25T11:19:11.685Z,29.60
2019-02-25T11:20:11.694Z,29.17
2019-02-25T11:21:11.698Z,28.52
2019-02-25T11:22:13.736Z,29.27
2019-02-25T11:23:12.853Z,29.10
2019-02-25T11:24:11.731Z,28.87
2019-02-25T11:25:11.739Z,28.85
2019-02-25T11:26:11.751Z,29.30
2019-02-25T11:27:11.757Z,29.42
2019-02-25T11:28:23.578Z,27.66
2019-02-25T11:29:13.716Z,26.23
2019-02-25T11:30:12.550Z,25.83
2019-02-25T11:31:11.797Z,26.01
2019-02-25T11:32:11.806Z,25.90
2019-02-25T11:33:11.816Z,25.81
2019-02-25T11:34:11.827Z,25.69
2019-02-25T11:35:13.015Z,24.70
2019-02-25T11:36:12.798Z,24.67
2019-02-25T11:37:11.852Z,25.49
2019-02-25T11:38:11.859Z,25.86
2019-02-25T11:39:11.863Z,26.27
2019-02-25T11:40:11.868Z,26.28
2019-02-25T11:41:11.874Z,26.23
2019-02-25T11:42:13.512Z,25.75
2019-02-25T11:43:13.257Z,25.17
2019-02-25T11:44:11.901Z,24.48
2019-02-25T11:45:11.906Z,23.34
2019-02-25T11:46:11.917Z,23.04
2019-02-25T11:47:11.915Z,22.67
2019-02-25T11:48:11.921Z,22.75
2019-02-25T11:49:11.933Z,22.46
2019-02-25T11:50:11.935Z,22.20
2019-02-25T11:51:11.945Z,21.82
2019-02-25T11:52:11.949Z,21.71
2019-02-25T11:53:11.950Z,21.68
2019-02-25T11:54:11.956Z,21.75
2019-02-25T11:55:11.962Z,21.34
2019-02-25T11:56:11.967Z,21.27
2019-02-25T11:57:11.969Z,21.42
2019-02-25T11:58:11.971Z,21.67
2019-02-25T11:59:11.971Z,21.51
2019-02-25T12:00:11.973Z,21.58
2019-02-25T12:01:11.978Z,21.68
2019-02-25T12:02:11.982Z,21.55
2019-02-25T12:03:11.988Z,21.56
2019-02-25T12:04:12.000Z,21.19
2019-02-25T12:05:11.991Z,20.87
2019-02-25T12:06:11.992Z,20.69
2019-02-25T12:07:11.990Z,20.78
2019-02-25T12:08:11.992Z,20.85
2019-02-25T12:09:11.996Z,20.97
2019-02-25T12:10:11.997Z,20.85
2019-02-25T12:11:11.994Z,20.82
2019-02-25T12:12:11.995Z,20.82
2019-02-25T12:13:11.999Z,20.79
2019-02-25T12:14:12.000Z,20.83
2019-02-25T12:15:12.005Z,20.76
2019-02-25T12:16:12.006Z,20.75
2019-02-25T12:17:12.007Z,20.61
2019-02-25T12:18:12.007Z,20.41
2019-02-25T12:19:18.009Z,20.46
2019-02-25T12:20:12.002Z,20.51
2019-02-25T12:21:12.000Z,20.44
2019-02-25T12:22:12.002Z,20.48
2019-02-25T12:23:12.006Z,20.40
2019-02-25T12:24:12.007Z,20.48
2019-02-25T12:25:12.001Z,20.48
2019-02-25T12:26:12.001Z,20.50
2019-02-25T12:27:12.009Z,20.33
2019-02-25T12:28:12.004Z,20.34
2019-02-25T12:29:12.016Z,20.31
2019-02-25T12:30:12.007Z,20.15
2019-02-25T12:31:12.002Z,20.31
2019-02-25T12:32:12.002Z,20.41
2019-02-25T12:33:12.000Z,20.33
2019-02-25T12:34:12.000Z,20.42
2019-02-25T12:35:12.005Z,20.54
2019-02-25T12:36:13.707Z,20.61
2019-02-25T12:37:12.002Z,20.54
2019-02-25T12:38:12.000Z,20.48
2019-02-25T12:39:11.995Z,20.44
2019-02-25T12:40:11.993Z,20.44
2019-02-25T12:41:11.999Z,20.54
2019-02-25T12:42:11.996Z,20.58
2019-02-25T12:43:11.992Z,20.71
2019-02-25T12:44:11.989Z,20.76
2019-02-25T12:45:11.994Z,20.87
2019-02-25T12:46:12.042Z,20.87
2019-02-25T12:47:11.995Z,20.94
2019-02-25T12:48:11.994Z,20.91
2019-02-25T12:49:11.994Z,20.82
2019-02-25T12:50:11.994Z,20.73
2019-02-25T12:51:11.987Z,20.85
2019-02-25T12:52:11.986Z,20.93
2019-02-25T12:53:11.982Z,20.91
2019-02-25T12:54:11.982Z,20.88
2019-02-25T12:55:11.986Z,21.08
2019-02-25T12:56:11.985Z,21.09
2019-02-25T12:57:11.979Z,21.16
2019-02-25T12:58:11.979Z,21.21
2019-02-25T12:59:11.983Z,21.30
2019-02-25T13:00:11.981Z,21.30
2019-02-25T13:01:11.983Z,21.27
2019-02-25T13:02:11.983Z,21.15
2019-02-25T13:03:11.977Z,21.03
2019-02-25T13:04:11.975Z,21.06
2019-02-25T13:05:12.001Z,21.08
2019-02-25T13:06:11.974Z,20.96